Time;durP1;ratioP1;P1;durP2;ratioP2;P2;SDS_P1;SDS_P2;PMS_P1;PMS_P2;Temp;Humidity;BMP_temperature;BMP_pressure;BME280_temperature;BME280_humidity;BME280_pressure;Samples;Min_cycle;Max_cycle;Signal;HPM_P1;HPM_P2
2023/10/18 00:02:26;;;;;;;7.88;5.00;;;13.10;96.20;;;;;;4263614;27;20046;-61
2023/10/18 00:04:29;;;;;;;6.50;3.25;;;13.10;96.20;;;;;;4266237;27;20066;-61
2023/10/18 00:06:34;;;;;;;10.57;4.38;;;13.10;96.20;;;;;;4266118;27;20461;-65
2023/10/18 00:08:38;;;;;;;5.90;3.35;;;13.00;96.20;;;;;;4264334;27;20472;-62
2023/10/18 00:10:40;;;;;;;7.97;3.55;;;13.00;96.30;;;;;;4265570;27;20042;-61
2023/10/18 00:12:44;;;;;;;9.68;4.60;;;13.00;96.30;;;;;;4265595;27;20553;-61
2023/10/18 00:14:49;;;;;;;6.13;3.45;;;13.00;96.30;;;;;;4265191;27;20095;-61
2023/10/18 00:16:51;;;;;;;9.68;3.88;;;13.00;96.30;;;;;;4265431;27;20456;-60
2023/10/18 00:18:53;;;;;;;13.50;3.72;;;13.00;96.50;;;;;;4265399;27;20066;-61
2023/10/18 00:21:01;;;;;;;4.85;3.30;;;12.90;96.50;;;;;;4264729;27;20396;-61
2023/10/18 00:23:03;;;;;;;12.57;4.32;;;13.00;96.40;;;;;;4264960;27;20053;-61
2023/10/18 00:25:08;;;;;;;8.80;3.83;;;12.90;96.50;;;;;;4264980;27;20070;-61
2023/10/18 00:27:10;;;;;;;;;;;12.90;96.50;;;;;;4266087;27;20492;-60
2023/10/18 00:29:13;;;;;;;56.83;36.63;;;12.90;96.50;;;;;;4265306;27;20030;-60
2023/10/18 00:31:18;;;;;;;7.63;3.88;;;12.90;96.50;;;;;;4265426;27;20532;-60
2023/10/18 00:33:20;;;;;;;9.40;4.15;;;12.90;96.60;;;;;;4265303;27;20051;-61
2023/10/18 00:35:31;;;;;;;9.57;4.15;;;12.80;96.80;;;;;;4264633;27;20130;-60
2023/10/18 00:37:36;;;;;;;5.40;3.70;;;12.90;96.50;;;;;;4265003;27;20038;-62
2023/10/18 00:39:39;;;;;;;8.20;3.85;;;12.90;96.50;;;;;;4255166;27;20038;-60
2023/10/18 00:41:44;;;;;;;8.57;3.65;;;12.90;96.50;;;;;;4265417;27;20047;-60
2023/10/18 00:43:46;;;;;;;7.85;4.30;;;12.90;96.60;;;;;;4264981;27;20043;-60
2023/10/18 00:45:50;;;;;;;10.35;4.80;;;12.80;96.70;;;;;;4264892;27;20099;-61
2023/10/18 00:47:54;;;;;;;9.88;4.43;;;12.80;96.70;;;;;;4265236;27;20072;-61
2023/10/18 00:49:57;;;;;;;7.85;4.15;;;12.80;96.70;;;;;;4266601;27;20058;-63
2023/10/18 00:51:59;;;;;;;6.40;3.83;;;12.80;96.70;;;;;;4267368;27;20089;-62
2023/10/18 00:54:03;;;;;;;5.82;3.80;;;12.70;96.80;;;;;;4267596;27;20026;-62
2023/10/18 00:56:06;;;;;;;6.03;3.78;;;12.60;96.90;;;;;;4265945;27;20070;-61
2023/10/18 00:58:11;;;;;;;12.23;4.22;;;12.70;96.90;;;;;;4246306;27;20113;-60
2023/10/18 01:00:19;;;;;;;11.55;4.10;;;12.60;96.90;;;;;;4264116;27;20066;-63
2023/10/18 01:02:35;;;;;;;8.52;4.13;;;12.60;97.00;;;;;;4260477;27;20069;-61
2023/10/18 01:04:40;;;;;;;10.45;3.90;;;12.60;97.00;;;;;;4264729;27;20050;-60
2023/10/18 01:06:47;;;;;;;12.00;4.40;;;12.50;97.00;;;;;;4264024;27;20069;-61
2023/10/18 01:08:50;;;;;;;8.95;3.78;;;12.60;97.00;;;;;;4264582;27;20047;-61
2023/10/18 01:10:53;;;;;;;6.43;3.47;;;12.60;96.90;;;;;;4264576;27;20098;-60
2023/10/18 01:12:55;;;;;;;5.68;3.58;;;12.70;96.90;;;;;;4264582;27;20476;-61
2023/10/18 01:14:59;;;;;;;11.60;4.53;;;12.60;96.90;;;;;;4264307;27;20055;-60
2023/10/18 01:17:04;;;;;;;8.40;4.65;;;12.60;97.00;;;;;;4262364;27;20449;-60
2023/10/18 01:19:08;;;;;;;8.35;5.60;;;12.60;96.90;;;;;;4264362;27;20057;-60
2023/10/18 01:21:16;;;;;;;7.40;5.15;;;12.60;96.80;;;;;;4245870;27;20047;-63
2023/10/18 01:23:19;;;;;;;9.07;5.63;;;12.60;96.80;;;;;;4264964;27;20081;-61
2023/10/18 01:25:24;;;;;;;7.72;4.40;;;12.60;96.80;;;;;;4247400;27;20047;-61
2023/10/18 01:27:26;;;;;;;9.68;4.25;;;12.50;96.90;;;;;;4265990;27;20047;-61
2023/10/18 01:29:29;;;;;;;7.57;3.60;;;12.50;96.90;;;;;;4266074;27;20399;-60
2023/10/18 01:31:31;;;;;;;7.82;4.05;;;12.50;96.80;;;;;;4265175;27;20047;-61
2023/10/18 01:33:39;;;;;;;7.22;3.63;;;12.50;96.80;;;;;;4264051;27;20069;-62
2023/10/18 01:35:50;;;;;;;9.40;3.75;;;12.60;96.80;;;;;;4259600;27;20393;-59
2023/10/18 01:37:53;;;;;;;8.60;3.83;;;12.50;96.80;;;;;;4252912;27;20042;-59
2023/10/18 01:39:55;;;;;;;9.75;3.83;;;12.50;96.70;;;;;;4263930;27;20049;-61
2023/10/18 01:41:59;;;;;;;8.88;3.67;;;12.50;96.70;;;;;;4264432;27;20043;-61
2023/10/18 01:44:06;;;;;;;10.37;3.93;;;12.60;96.70;;;;;;4264365;27;20043;-60
2023/10/18 01:46:13;;;;;;;7.03;3.83;;;12.50;96.60;;;;;;4264538;27;20043;-60
2023/10/18 01:48:18;;;;;;;7.10;4.18;;;12.60;96.60;;;;;;4264352;27;20046;-60
2023/10/18 01:50:21;;;;;;;;;;;12.60;96.70;;;;;;4264585;27;20396;-59
2023/10/18 01:52:24;;;;;;;12.95;3.78;;;12.50;96.60;;;;;;4264119;27;19923;-59
2023/10/18 01:54:26;;;;;;;12.13;4.50;;;12.50;96.70;;;;;;4264294;27;20449;-61
2023/10/18 01:56:29;;;;;;;13.00;4.05;;;12.50;96.60;;;;;;4265172;27;20054;-61
2023/10/18 01:58:35;;;;;;;8.43;3.45;;;12.50;96.60;;;;;;4263747;27;20047;-61
2023/10/18 02:00:41;;;;;;;5.57;3.28;;;12.50;96.60;;;;;;4259544;27;20114;-60
2023/10/18 02:02:46;;;;;;;8.88;3.17;;;12.50;96.60;;;;;;4246876;28;20122;-59
2023/10/18 02:04:49;;;;;;;;;;;12.50;96.70;;;;;;4263492;27;20117;-61
2023/10/18 02:07:07;;;;;;;8.15;3.58;;;12.50;96.70;;;;;;4247017;28;19919;-60
2023/10/18 02:09:10;;;;;;;6.40;3.67;;;12.40;96.70;;;;;;4245090;28;20043;-61
2023/10/18 02:11:12;;;;;;;7.25;3.63;;;12.50;96.80;;;;;;4263784;27;20475;-61
2023/10/18 02:13:15;;;;;;;7.47;3.72;;;12.50;96.60;;;;;;4263727;27;20154;-61
2023/10/18 02:15:19;;;;;;;9.45;3.47;;;12.50;96.60;;;;;;4263490;27;20111;-61
2023/10/18 02:17:21;;;;;;;6.10;3.80;;;12.50;96.50;;;;;;4258220;27;20048;-62
2023/10/18 02:19:26;;;;;;;6.07;3.30;;;12.50;96.50;;;;;;4254798;27;20424;-60
2023/10/18 02:21:29;;;;;;;;;;;12.50;96.50;;;;;;4264442;27;20050;-61
2023/10/18 02:23:37;;;;;;;7.32;4.07;;;12.50;96.40;;;;;;4263882;27;19954;-60
2023/10/18 02:27:41;;;;;;;10.35;3.78;;;12.50;96.50;;;;;;4263745;27;20408;-59
2023/10/18 02:29:44;;;;;;;15.00;4.03;;;12.50;96.50;;;;;;4263315;27;20134;-59
2023/10/18 02:31:56;;;;;;;7.88;3.53;;;12.50;96.50;;;;;;4265097;27;20050;-59
2023/10/18 02:33:58;;;;;;;7.63;3.42;;;12.40;96.40;;;;;;4266111;27;20053;-61
2023/10/18 02:36:00;;;;;;;11.52;4.20;;;12.40;96.50;;;;;;4265211;27;20053;-60
2023/10/18 02:38:10;;;;;;;12.48;3.50;;;12.40;96.50;;;;;;4266664;27;20050;-59
2023/10/18 02:40:29;;;;;;;9.98;3.58;;;12.40;96.50;;;;;;4258492;27;20035;-62
2023/10/18 02:42:32;;;;;;;5.30;3.15;;;12.50;96.40;;;;;;4266785;27;20118;-59
2023/10/18 02:44:37;;;;;;;5.88;3.45;;;12.40;96.50;;;;;;4266462;27;20047;-59
2023/10/18 02:46:39;;;;;;;10.73;3.70;;;12.40;96.50;;;;;;4266906;27;20095;-60
2023/10/18 02:48:44;;;;;;;8.50;3.75;;;12.50;96.40;;;;;;4266531;27;20064;-59
2023/10/18 02:50:47;;;;;;;6.13;3.17;;;12.50;96.30;;;;;;4266405;27;20049;-60
2023/10/18 02:52:53;;;;;;;6.68;3.10;;;12.40;96.40;;;;;;4266643;27;20077;-59
2023/10/18 02:54:57;;;;;;;6.60;3.47;;;12.50;96.40;;;;;;4266362;27;20121;-59
2023/10/18 02:56:59;;;;;;;5.25;3.22;;;12.40;96.60;;;;;;4266195;27;20039;-61
2023/10/18 02:59:06;;;;;;;10.77;3.88;;;12.50;96.30;;;;;;4266628;27;20560;-61
2023/10/18 03:01:09;;;;;;;10.02;4.80;;;12.50;96.30;;;;;;4263496;27;20039;-61
2023/10/18 03:03:12;;;;;;;7.80;4.20;;;12.50;96.20;;;;;;4266025;27;20112;-59
2023/10/18 03:05:19;;;;;;;8.38;3.33;;;12.50;96.10;;;;;;4266226;27;20046;-62
2023/10/18 03:07:22;;;;;;;6.40;3.70;;;12.50;96.20;;;;;;4266335;27;20399;-62
2023/10/18 03:09:27;;;;;;;7.13;3.42;;;12.60;96.20;;;;;;4266529;27;20420;-62
2023/10/18 03:11:32;;;;;;;5.63;3.50;;;12.50;96.10;;;;;;4266795;27;20047;-64
2023/10/18 03:13:37;;;;;;;5.68;3.60;;;12.60;96.20;;;;;;4267004;27;20540;-62
2023/10/18 03:15:52;;;;;;;7.45;4.18;;;12.50;96.20;;;;;;4267027;27;20077;-62
2023/10/18 03:18:03;;;;;;;8.82;3.30;;;12.50;96.30;;;;;;4266440;27;20470;-62
2023/10/18 03:20:24;;;;;;;5.95;3.03;;;12.40;96.30;;;;;;4266545;27;20042;-61
2023/10/18 03:22:39;;;;;;;10.38;3.70;;;12.40;96.30;;;;;;4267315;27;20134;-61
2023/10/18 03:24:42;;;;;;;6.90;3.75;;;12.40;96.30;;;;;;4266917;27;20042;-62
2023/10/18 03:26:44;;;;;;;7.10;3.85;;;12.50;96.30;;;;;;4266604;27;20494;-61
2023/10/18 03:28:47;;;;;;;7.40;3.92;;;12.40;96.30;;;;;;4266680;27;20070;-61
2023/10/18 03:30:50;;;;;;;6.60;3.65;;;12.40;96.40;;;;;;4266348;27;20042;-62
2023/10/18 03:32:54;;;;;;;13.45;4.20;;;12.30;96.40;;;;;;4266504;27;20088;-62
2023/10/18 03:34:56;;;;;;;6.27;3.23;;;12.30;96.40;;;;;;4266368;27;20042;-68
2023/10/18 03:36:59;;;;;;;11.13;3.97;;;12.30;96.40;;;;;;4266231;27;20490;-61
2023/10/18 03:39:25;;;;;;;11.98;3.50;;;12.40;96.50;;;;;;4266470;27;20411;-62
2023/10/18 03:41:32;;;;;;;5.28;3.50;;;12.40;96.40;;;;;;4266261;27;20046;-62
2023/10/18 03:43:36;;;;;;;5.97;3.50;;;12.40;96.40;;;;;;4266038;27;20051;-62
2023/10/18 03:46:29;;;;;;;5.78;3.45;;;12.50;96.30;;;;;;4266252;27;20130;-62
2023/10/18 03:48:12;;;;;;;6.75;3.50;;;12.50;96.20;;;;;;4252262;27;20043;-61
2023/10/18 03:50:16;;;;;;;5.75;3.50;;;12.50;96.30;;;;;;4266485;27;20050;-62
2023/10/18 03:52:18;;;;;;;8.77;4.47;;;12.60;96.60;;;;;;4266490;27;20488;-61
2023/10/18 03:54:28;;;;;;;8.93;4.55;;;12.60;96.30;;;;;;4268006;27;20377;-63
2023/10/18 03:56:32;;;;;;;14.50;4.50;;;12.70;96.30;;;;;;4269280;27;20077;-63
2023/10/18 03:58:35;;;;;;;7.97;3.17;;;12.70;96.20;;;;;;4269767;27;20070;-62
2023/10/18 04:00:46;;;;;;;7.65;3.95;;;12.70;96.20;;;;;;4245769;27;20082;-64
2023/10/18 04:02:52;;;;;;;7.65;3.72;;;12.70;96.20;;;;;;4249552;27;20039;-61
2023/10/18 04:04:59;;;;;;;7.53;3.78;;;12.80;96.20;;;;;;4249024;27;20392;-60
2023/10/18 04:07:12;;;;;;;11.38;3.63;;;12.70;96.30;;;;;;4249187;27;20035;-62
2023/10/18 04:09:16;;;;;;;8.05;3.70;;;12.80;96.10;;;;;;4249299;27;20100;-59
2023/10/18 04:11:26;;;;;;;6.55;3.30;;;12.80;96.30;;;;;;4248812;27;20047;-62
2023/10/18 04:13:31;;;;;;;7.95;3.50;;;12.80;96.20;;;;;;4248635;27;20050;-61
2023/10/18 04:15:37;;;;;;;10.80;3.50;;;12.80;96.40;;;;;;4248484;27;20405;-62
2023/10/18 04:17:39;;;;;;;5.18;3.40;;;12.70;96.40;;;;;;4256717;27;20046;-61
2023/10/18 04:19:47;;;;;;;5.50;3.30;;;12.80;96.50;;;;;;4265965;27;20054;-62
2023/10/18 04:21:53;;;;;;;9.90;3.38;;;12.80;96.60;;;;;;4265528;27;20066;-62
2023/10/18 04:23:59;;;;;;;9.52;3.45;;;12.70;96.70;;;;;;4265566;27;20078;-62
2023/10/18 04:26:03;;;;;;;7.03;3.58;;;12.70;97.00;;;;;;4265762;27;20043;-60
2023/10/18 04:28:07;;;;;;;12.13;3.58;;;12.60;97.00;;;;;;4266122;27;20082;-58
2023/10/18 04:30:12;;;;;;;5.38;3.10;;;12.60;97.20;;;;;;4265780;27;20139;-59
2023/10/18 04:32:18;;;;;;;8.18;3.13;;;12.60;97.20;;;;;;4265942;27;20077;-59
2023/10/18 04:34:21;;;;;;;4.97;3.13;;;12.60;97.40;;;;;;4266004;27;20052;-59
2023/10/18 04:36:23;;;;;;;7.13;3.65;;;12.60;97.50;;;;;;4247377;27;20378;-59
2023/10/18 04:38:36;;;;;;;8.45;3.83;;;12.60;97.50;;;;;;4265515;27;20111;-59
2023/10/18 04:40:43;;;;;;;7.20;3.92;;;12.70;97.40;;;;;;4265706;27;20095;-59
2023/10/18 04:42:46;;;;;;;16.08;4.18;;;12.60;97.70;;;;;;4265482;27;20069;-59
2023/10/18 04:44:50;;;;;;;8.30;3.70;;;12.60;98.10;;;;;;4265286;27;20042;-59
2023/10/18 04:46:52;;;;;;;4.80;3.25;;;12.60;98.70;;;;;;4265604;27;20046;-59
2023/10/18 04:51:06;;;;;;;6.47;4.10;;;12.60;98.30;;;;;;4265392;27;20046;-59
2023/10/18 04:53:14;;;;;;;5.93;3.83;;;12.50;98.50;;;;;;4265356;27;20461;-61
2023/10/18 04:55:16;;;;;;;6.35;3.55;;;12.50;98.90;;;;;;4264882;27;20074;-59
2023/10/18 04:57:22;;;;;;;7.00;3.50;;;12.40;98.80;;;;;;4265519;27;20136;-59
2023/10/18 04:59:29;;;;;;;6.65;3.95;;;12.30;99.30;;;;;;4264826;27;20070;-59
2023/10/18 05:01:35;;;;;;;11.63;4.28;;;12.40;99.40;;;;;;4252960;27;20051;-59
2023/10/18 05:03:38;;;;;;;8.52;4.53;;;12.40;99.40;;;;;;4248251;27;20046;-60
2023/10/18 05:05:45;;;;;;;7.38;3.55;;;12.40;99.50;;;;;;4247745;27;20450;-59
2023/10/18 05:07:48;;;;;;;7.32;4.25;;;12.30;99.60;;;;;;4247872;27;20122;-60
2023/10/18 05:09:56;;;;;;;7.65;3.90;;;12.30;99.80;;;;;;4248018;27;20073;-59
2023/10/18 05:11:59;;;;;;;7.82;4.32;;;12.30;99.60;;;;;;4248184;27;20065;-59
2023/10/18 05:14:03;;;;;;;11.32;4.72;;;12.30;99.90;;;;;;4247707;27;20408;-60
2023/10/18 05:16:05;;;;;;;9.25;4.38;;;12.30;99.90;;;;;;4248132;27;20481;-60
2023/10/18 05:18:15;;;;;;;8.18;4.20;;;12.30;99.90;;;;;;4259763;27;20073;-59
2023/10/18 05:22:25;;;;;;;8.80;4.72;;;12.30;99.90;;;;;;4264915;27;20129;-60
2023/10/18 05:24:28;;;;;;;11.18;4.32;;;12.40;99.90;;;;;;4265028;27;20061;-59
2023/10/18 05:26:33;;;;;;;8.18;4.28;;;12.30;99.90;;;;;;4267069;27;20058;-64
2023/10/18 05:28:47;;;;;;;5.75;3.30;;;12.40;99.90;;;;;;4266939;27;20038;-60
2023/10/18 05:33:15;;;;;;;6.72;3.97;;;12.40;99.90;;;;;;4264989;27;20061;-61
2023/10/18 05:37:34;;;;;;;12.40;4.10;;;12.50;99.90;;;;;;4264948;27;20130;-63
2023/10/18 05:39:49;;;;;;;9.23;3.97;;;12.40;99.90;;;;;;4265097;27;20046;-60
2023/10/18 05:41:51;;;;;;;6.28;4.00;;;12.40;99.90;;;;;;4264780;27;20469;-60
2023/10/18 05:43:58;;;;;;;10.77;4.25;;;12.50;99.90;;;;;;4264535;27;20046;-60
2023/10/18 05:46:07;;;;;;;10.70;4.45;;;12.50;99.90;;;;;;4264436;27;20053;-60
2023/10/18 05:48:17;;;;;;;15.70;4.70;;;12.40;99.90;;;;;;4264573;27;20042;-60
2023/10/18 05:50:19;;;;;;;8.50;4.10;;;12.50;99.90;;;;;;4264669;27;20047;-60
2023/10/18 05:52:36;;;;;;;10.10;4.32;;;12.50;99.90;;;;;;4264380;27;20126;-58
2023/10/18 05:54:38;;;;;;;6.38;3.72;;;12.50;99.90;;;;;;4264355;27;20069;-60
2023/10/18 05:56:40;;;;;;;12.45;3.97;;;12.50;99.90;;;;;;4264010;27;20043;-60
2023/10/18 05:58:42;;;;;;;10.27;3.90;;;12.50;99.90;;;;;;4263598;27;20046;-60
2023/10/18 06:00:48;;;;;;;5.50;3.75;;;12.50;99.90;;;;;;4259433;27;20059;-61
2023/10/18 06:02:56;;;;;;;6.53;4.00;;;12.50;99.90;;;;;;4247480;28;20054;-60
2023/10/18 06:04:59;;;;;;;10.38;4.43;;;12.50;99.90;;;;;;4247343;28;20118;-59
2023/10/18 06:07:09;;;;;;;8.77;4.07;;;12.60;99.90;;;;;;4250841;27;20051;-60
2023/10/18 06:09:11;;;;;;;7.15;4.57;;;12.60;99.90;;;;;;4250900;27;20051;-60
2023/10/18 06:11:14;;;;;;;12.02;3.90;;;12.60;99.90;;;;;;4250592;27;20075;-60
2023/10/18 06:13:21;;;;;;;10.95;4.50;;;12.60;99.90;;;;;;4250621;27;20047;-61
2023/10/18 06:15:38;;;;;;;5.97;3.92;;;12.70;99.90;;;;;;4250573;27;20047;-60
2023/10/18 06:17:47;;;;;;;8.55;4.03;;;12.70;99.90;;;;;;4258834;27;20078;-61
2023/10/18 06:19:50;;;;;;;6.88;3.75;;;12.70;99.90;;;;;;4268057;27;20055;-59
2023/10/18 06:22:08;;;;;;;7.07;3.67;;;12.70;99.90;;;;;;4267696;27;20065;-60
2023/10/18 06:24:12;;;;;;;5.78;3.33;;;12.70;99.90;;;;;;4268032;27;20050;-60
2023/10/18 06:26:33;;;;;;;8.00;3.80;;;12.70;99.90;;;;;;4267229;27;20555;-60
2023/10/18 06:28:37;;;;;;;9.15;3.50;;;12.80;99.90;;;;;;4267699;27;20500;-60
2023/10/18 06:30:40;;;;;;;6.70;4.07;;;12.80;99.90;;;;;;4267674;27;20065;-60
2023/10/18 06:32:43;;;;;;;8.90;3.85;;;12.70;99.90;;;;;;4267702;27;20423;-60
2023/10/18 06:34:46;;;;;;;8.23;4.13;;;12.80;99.90;;;;;;4267491;27;20058;-60
2023/10/18 06:36:49;;;;;;;14.50;4.72;;;12.80;99.90;;;;;;4267331;27;20131;-60
2023/10/18 06:38:53;;;;;;;6.68;4.13;;;12.90;99.90;;;;;;4266524;27;20073;-60
2023/10/18 06:43:08;;;;;;;8.60;4.00;;;12.90;99.90;;;;;;4267674;27;20047;-59
2023/10/18 06:45:15;;;;;;;13.18;4.32;;;13.00;99.90;;;;;;4267388;27;20452;-60
2023/10/18 06:47:18;;;;;;;10.90;4.22;;;12.90;99.80;;;;;;4267389;27;20505;-59
2023/10/18 06:49:20;;;;;;;7.68;4.07;;;12.90;99.80;;;;;;4267545;27;20468;-59
2023/10/18 06:51:33;;;;;;;23.73;5.20;;;12.90;99.90;;;;;;4267241;27;20419;-59
2023/10/18 06:53:38;;;;;;;15.00;4.70;;;12.90;99.90;;;;;;4267036;27;20058;-59
2023/10/18 06:55:45;;;;;;;9.07;4.03;;;12.80;99.90;;;;;;4267261;27;20049;-60
2023/10/18 06:57:49;;;;;;;13.75;4.35;;;12.80;99.90;;;;;;4267413;27;20130;-57
2023/10/18 06:59:54;;;;;;;9.43;4.68;;;12.90;99.90;;;;;;4268233;27;20074;-58
2023/10/18 07:01:58;;;;;;;10.40;3.67;;;12.90;99.90;;;;;;4252213;27;20070;-56
2023/10/18 07:04:01;;;;;;;;;;;12.90;99.90;;;;;;4251410;27;20126;-57
2023/10/18 07:06:05;;;;;;;8.80;4.03;;;12.90;99.90;;;;;;4251669;27;20318;-60
2023/10/18 07:08:18;;;;;;;12.50;4.00;;;12.90;99.90;;;;;;4252276;27;20458;-58
2023/10/18 07:10:40;;;;;;;8.77;4.60;;;12.90;99.90;;;;;;4250188;27;20092;-57
2023/10/18 07:12:44;;;;;;;9.48;3.95;;;12.90;99.90;;;;;;4249751;27;20104;-57
2023/10/18 07:14:46;;;;;;;9.17;4.17;;;12.90;99.90;;;;;;4250051;27;20577;-58
2023/10/18 07:16:49;;;;;;;11.25;4.63;;;13.00;99.90;;;;;;4251013;27;20130;-58
2023/10/18 07:19:04;;;;;;;13.98;4.55;;;13.00;99.90;;;;;;4267621;27;20038;-57
2023/10/18 07:21:07;;;;;;;13.73;4.93;;;12.90;99.90;;;;;;4267436;27;20215;-58
2023/10/18 07:23:20;;;;;;;9.07;4.45;;;12.90;99.90;;;;;;4267260;27;20376;-61
2023/10/18 07:25:27;;;;;;;11.20;4.70;;;13.00;99.90;;;;;;4267449;27;20050;-58
2023/10/18 07:27:31;;;;;;;10.85;3.70;;;13.00;99.90;;;;;;4267700;27;20064;-63
2023/10/18 07:29:45;;;;;;;8.05;4.22;;;13.10;99.90;;;;;;4267810;27;20047;-57
2023/10/18 07:31:47;;;;;;;8.35;4.10;;;13.20;99.90;;;;;;4249041;27;20055;-58
2023/10/18 07:33:50;;;;;;;10.27;4.47;;;13.20;99.90;;;;;;4267589;27;20046;-58
2023/10/18 07:35:55;;;;;;;12.45;4.40;;;13.20;99.90;;;;;;4260831;27;20072;-59
2023/10/18 07:37:57;;;;;;;7.90;3.90;;;13.30;99.90;;;;;;4250492;27;20066;-58
2023/10/18 07:40:07;;;;;;;11.32;3.92;;;13.30;99.60;;;;;;4249812;27;20404;-57
2023/10/18 07:42:11;;;;;;;8.60;4.20;;;13.40;99.80;;;;;;4231737;27;20050;-59
2023/10/18 07:44:14;;;;;;;6.40;3.70;;;13.40;99.80;;;;;;4249670;27;20092;-58
2023/10/18 07:46:18;;;;;;;9.13;4.07;;;13.50;99.30;;;;;;4249380;27;20521;-58
2023/10/18 07:48:21;;;;;;;13.93;4.22;;;13.50;99.30;;;;;;4249375;27;20484;-58
2023/10/18 07:50:41;;;;;;;9.18;4.05;;;13.50;99.50;;;;;;4249320;27;20047;-58
2023/10/18 07:52:44;;;;;;;12.20;4.53;;;13.60;99.50;;;;;;4248722;27;20058;-58
2023/10/18 07:54:48;;;;;;;11.82;4.10;;;13.70;99.50;;;;;;4249293;27;20151;-58
2023/10/18 07:56:50;;;;;;;11.85;4.93;;;13.80;99.10;;;;;;4249095;27;20092;-58
2023/10/18 07:58:53;;;;;;;11.20;4.57;;;13.90;99.10;;;;;;4248990;27;20136;-57
2023/10/18 08:03:05;;;;;;;8.38;4.22;;;14.00;99.00;;;;;;4248953;27;20404;-58
2023/10/18 08:05:08;;;;;;;11.67;4.00;;;14.00;98.70;;;;;;4230881;28;20052;-57
2023/10/18 08:07:15;;;;;;;18.10;4.63;;;14.00;98.90;;;;;;4248601;27;20520;-60
2023/10/18 08:09:20;;;;;;;13.00;3.97;;;14.10;98.80;;;;;;4248907;27;20070;-60
2023/10/18 08:11:23;;;;;;;8.88;3.78;;;14.10;98.60;;;;;;4249076;27;20074;-60
2023/10/18 08:13:26;;;;;;;9.50;4.32;;;14.10;98.60;;;;;;4248748;27;20043;-60
2023/10/18 08:15:34;;;;;;;11.70;4.38;;;14.20;98.60;;;;;;4249428;27;20095;-58
2023/10/18 08:19:55;;;;;;;11.50;4.75;;;14.20;98.30;;;;;;4249283;27;20462;-58
2023/10/18 08:22:21;;;;;;;13.68;4.00;;;14.30;98.40;;;;;;4249107;27;20061;-58
2023/10/18 08:24:25;;;;;;;7.93;4.18;;;14.40;98.10;;;;;;4249721;27;20124;-59
2023/10/18 08:26:28;;;;;;;8.77;3.92;;;14.50;98.20;;;;;;4248389;27;20051;-58
2023/10/18 08:28:42;;;;;;;11.00;4.32;;;14.70;98.10;;;;;;4262020;27;20092;-62
2023/10/18 08:32:46;;;;;;;9.85;4.03;;;14.90;97.70;;;;;;4248467;27;20044;-57
2023/10/18 08:34:50;;;;;;;5.97;3.53;;;15.00;97.80;;;;;;4248449;27;20053;-57
2023/10/18 08:37:01;;;;;;;8.98;4.00;;;15.10;97.40;;;;;;4248769;27;20130;-58
2023/10/18 08:39:04;;;;;;;8.38;3.40;;;15.10;97.30;;;;;;4248665;27;20051;-58
2023/10/18 08:41:14;;;;;;;6.60;3.10;;;15.20;97.30;;;;;;4229605;28;20097;-57
2023/10/18 08:43:28;;;;;;;14.73;4.07;;;15.20;97.10;;;;;;4248438;27;20473;-58
2023/10/18 08:45:36;;;;;;;10.23;3.55;;;15.30;97.20;;;;;;4253171;27;20162;-60
2023/10/18 08:47:39;;;;;;;10.63;4.32;;;15.30;97.50;;;;;;4264784;27;20137;-61
2023/10/18 08:49:45;;;;;;;7.18;3.88;;;15.30;97.30;;;;;;4265053;27;20043;-60
2023/10/18 08:51:54;;;;;;;7.35;4.03;;;15.30;97.60;;;;;;4265155;27;20058;-58
2023/10/18 08:53:59;;;;;;;10.25;4.10;;;15.40;97.60;;;;;;4249139;27;20054;-59
2023/10/18 08:56:06;;;;;;;10.50;4.20;;;15.40;97.90;;;;;;4247962;27;20112;-58
2023/10/18 08:58:08;;;;;;;11.68;4.07;;;15.50;97.70;;;;;;4248124;27;20108;-58
2023/10/18 09:02:39;;;;;;;14.60;4.18;;;15.60;97.80;;;;;;4264591;27;20107;-61
2023/10/18 09:04:44;;;;;;;9.05;3.70;;;15.70;97.70;;;;;;4264536;27;20042;-60
2023/10/18 09:06:47;;;;;;;9.35;3.90;;;15.70;97.60;;;;;;4246754;27;20059;-60
2023/10/18 09:09:07;;;;;;;11.80;4.53;;;15.80;97.70;;;;;;4246528;27;20058;-60
2023/10/18 09:11:21;;;;;;;8.82;4.22;;;15.90;97.80;;;;;;4264881;27;20050;-60
2023/10/18 09:15:36;;;;;;;8.98;4.55;;;16.00;97.60;;;;;;4264201;27;20122;-61
2023/10/18 09:18:05;;;;;;;10.05;4.97;;;16.10;97.70;;;;;;4254639;27;20043;-60
2023/10/18 09:20:09;;;;;;;13.60;3.67;;;16.20;97.70;;;;;;4248035;27;20424;-62
2023/10/18 09:22:12;;;;;;;11.93;4.22;;;16.20;97.40;;;;;;4248711;27;20095;-62
2023/10/18 09:24:29;;;;;;;8.27;4.63;;;16.30;97.70;;;;;;4252077;27;20035;-62
2023/10/18 09:26:41;;;;;;;8.85;4.40;;;16.40;97.60;;;;;;4274413;27;20086;-60
2023/10/18 09:28:44;;;;;;;9.73;4.50;;;16.50;97.80;;;;;;4272835;27;20490;-60
2023/10/18 09:30:47;;;;;;;7.85;4.57;;;16.50;97.70;;;;;;4247699;27;20039;-61
2023/10/18 09:32:53;;;;;;;10.38;4.20;;;16.50;97.80;;;;;;4247452;27;20043;-60
2023/10/18 09:34:55;;;;;;;9.02;3.80;;;16.70;97.70;;;;;;4248588;27;20046;-61
2023/10/18 09:36:57;;;;;;;7.43;3.28;;;16.70;97.80;;;;;;4264217;27;20164;-60
2023/10/18 09:39:00;;;;;;;8.18;3.30;;;16.80;97.80;;;;;;4264610;27;20043;-60
2023/10/18 09:41:04;;;;;;;12.18;3.83;;;16.90;97.60;;;;;;4262971;27;20676;-59
2023/10/18 09:43:06;;;;;;;7.03;3.58;;;16.90;97.50;;;;;;4262767;27;20043;-64
2023/10/18 09:45:10;;;;;;;10.40;3.70;;;17.00;97.50;;;;;;4265049;27;20047;-61
2023/10/18 09:47:12;;;;;;;11.77;3.30;;;17.00;97.50;;;;;;4265271;27;20078;-62
2023/10/18 09:49:21;;;;;;;9.13;3.47;;;17.10;97.80;;;;;;4265612;27;20053;-66
2023/10/18 09:51:24;;;;;;;6.35;2.58;;;17.10;97.70;;;;;;4265834;27;20129;-61
2023/10/18 09:53:26;;;;;;;11.27;3.42;;;17.20;97.60;;;;;;4264326;27;20046;-60
2023/10/18 09:55:29;;;;;;;8.23;3.03;;;17.20;97.50;;;;;;4264606;27;20047;-59
2023/10/18 09:57:35;;;;;;;8.55;3.50;;;17.20;97.40;;;;;;4264316;27;20039;-60
2023/10/18 09:59:38;;;;;;;13.45;3.28;;;17.10;97.40;;;;;;4264593;27;20050;-62
2023/10/18 10:03:50;;;;;;;12.40;3.55;;;17.10;97.60;;;;;;4247245;28;20044;-61
2023/10/18 10:05:56;;;;;;;11.40;3.03;;;17.10;97.70;;;;;;4247429;28;20054;-61
2023/10/18 10:08:07;;;;;;;5.65;2.55;;;17.10;97.90;;;;;;4247746;28;20047;-61
2023/10/18 10:10:19;;;;;;;10.18;3.05;;;17.00;97.80;;;;;;4247797;28;20054;-64
2023/10/18 10:12:27;;;;;;;11.10;2.92;;;17.00;98.00;;;;;;4250587;28;20051;-61
2023/10/18 10:14:36;;;;;;;7.25;3.08;;;17.00;98.00;;;;;;4249165;28;20074;-63
2023/10/18 10:16:45;;;;;;;8.23;3.03;;;17.00;98.00;;;;;;4249022;28;20463;-61
2023/10/18 10:18:49;;;;;;;9.55;3.08;;;17.00;97.90;;;;;;4247986;27;20048;-61
2023/10/18 10:20:54;;;;;;;5.78;3.13;;;17.00;97.90;;;;;;4248475;28;20062;-61
2023/10/18 10:22:56;;;;;;;8.73;3.28;;;17.00;98.10;;;;;;4247772;28;20043;-61
2023/10/18 10:25:04;;;;;;;7.03;2.70;;;17.00;98.10;;;;;;4248106;28;20047;-60
2023/10/18 10:27:27;;;;;;;9.15;3.35;;;17.00;98.10;;;;;;4228952;28;20051;-60
2023/10/18 10:31:55;;;;;;;4.20;2.90;;;17.00;98.40;;;;;;4247021;28;20477;-60
2023/10/18 10:34:07;;;;;;;9.15;3.83;;;17.10;98.30;;;;;;4246912;28;20043;-60
2023/10/18 10:36:12;;;;;;;12.57;3.55;;;17.10;98.30;;;;;;4259105;27;20471;-61
2023/10/18 10:38:18;;;;;;;7.55;3.10;;;17.10;98.20;;;;;;4264810;27;20043;-70
2023/10/18 10:42:43;;;;;;;6.63;3.15;;;17.30;98.20;;;;;;4264529;27;20045;-59
2023/10/18 10:45:06;;;;;;;8.27;3.37;;;17.40;98.10;;;;;;4264283;27;20050;-60
2023/10/18 10:47:33;;;;;;;4.82;2.90;;;17.50;98.10;;;;;;4263853;27;20047;-60
2023/10/18 10:49:48;;;;;;;11.63;3.53;;;17.50;98.10;;;;;;4263944;27;20039;-60
2023/10/18 10:51:56;;;;;;;8.60;3.40;;;17.60;98.10;;;;;;4264197;27;20147;-60
2023/10/18 10:53:58;;;;;;;6.20;2.88;;;17.60;98.20;;;;;;4267463;27;20045;-60
2023/10/18 10:56:16;;;;;;;4.90;3.08;;;17.60;98.20;;;;;;4267922;27;20095;-65
2023/10/18 10:58:22;;;;;;;8.18;3.05;;;17.70;98.10;;;;;;4268110;27;20059;-58
2023/10/18 11:00:39;;;;;;;5.57;2.78;;;17.70;98.20;;;;;;4265116;27;20042;-59
2023/10/18 11:02:45;;;;;;;10.63;3.03;;;17.70;98.20;;;;;;4250241;27;20047;-56
2023/10/18 11:04:57;;;;;;;5.80;2.97;;;17.70;98.30;;;;;;4232564;28;20051;-58
2023/10/18 11:07:01;;;;;;;7.60;3.00;;;17.70;98.30;;;;;;4250170;27;20076;-59
2023/10/18 11:09:05;;;;;;;12.45;3.17;;;17.60;98.40;;;;;;4250513;27;20039;-59
2023/10/18 11:11:07;;;;;;;7.25;3.03;;;17.70;98.30;;;;;;4250419;27;20130;-58
2023/10/18 11:13:13;;;;;;;7.43;3.17;;;17.60;98.50;;;;;;4250163;27;20043;-58
2023/10/18 11:15:18;;;;;;;8.85;3.60;;;17.60;98.50;;;;;;4249363;27;20047;-58
2023/10/18 11:17:23;;;;;;;6.60;3.00;;;17.60;98.50;;;;;;4254769;27;20045;-57
2023/10/18 11:19:29;;;;;;;7.60;3.35;;;17.60;98.70;;;;;;4253715;27;20492;-57
2023/10/18 11:21:33;;;;;;;4.70;3.13;;;17.60;98.80;;;;;;4249907;27;20046;-57
2023/10/18 11:23:37;;;;;;;9.27;3.20;;;17.50;98.70;;;;;;4249455;27;20047;-57
2023/10/18 11:25:41;;;;;;;5.63;2.92;;;17.50;98.80;;;;;;4249723;27;20044;-57
2023/10/18 11:27:43;;;;;;;7.50;3.08;;;17.50;99.10;;;;;;4249351;27;20047;-57